Miami, Arizona
Current Conditions -  °F | °C
As of 9:47 AM on Sunday 21 Dec 2014 (Local Time) from KIWA Reporting Station
Scattered Clouds Scattered Clouds  
Wind Chill: 46°   Ceiling: Unl
Heat Index: 48°   Visibility: 30mi
Dew Point: 41°   Wind: 6mph
Humidity: 76%   Direction: 150°SSE
Pressure: 30.16"   Gusts: NA
Location:  33.4°N, 110.87°W
Report Text: KIWA 211647Z 15005KT 30SM SCT200 09/05 A3016
Loading
Personal Weather Stations






























Interactive Weather Map New forecast layout! Learn more

10-Day Weather Forecast

Advertisements
Track Severe Weather on mobile